createdAt,value
2023-04-09T00:04:21.174Z,96430.09
2023-04-09T00:09:43.123Z,96432.38
2023-04-09T00:15:05.098Z,96426.94
2023-04-09T00:20:27.087Z,96428.53
2023-04-09T00:25:49.110Z,96435.22
2023-04-09T00:31:11.134Z,96430.53
2023-04-09T00:36:33.098Z,96433.25
2023-04-09T00:41:55.086Z,96436.78
2023-04-09T00:47:17.072Z,96441.09
2023-04-09T00:52:39.084Z,96438.72
2023-04-09T00:58:01.098Z,96440.22
2023-04-09T01:03:23.131Z,96440.94
2023-04-09T01:09:01.099Z,96437.72
2023-04-09T01:14:32.056Z,96434.41
2023-04-09T01:20:39.070Z,96424.56
2023-04-09T01:26:42.071Z,96406.16
2023-04-09T01:32:06.058Z,96413.47
2023-04-09T01:37:30.056Z,96418.13
2023-04-09T01:42:53.072Z,96420.75
2023-04-09T01:48:16.075Z,96416.81
2023-04-09T01:53:38.046Z,96428.75
2023-04-09T01:59:00.068Z,96425.19
2023-04-09T02:04:33.061Z,96428.97
2023-04-09T02:09:56.054Z,96428.47
2023-04-09T02:15:20.067Z,96433.44
2023-04-09T02:20:42.062Z,96437.22
2023-04-09T02:26:06.037Z,96440.94
2023-04-09T02:31:28.071Z,96439.19
2023-04-09T02:36:50.051Z,96437.84
2023-04-09T02:42:14.054Z,96454.41
2023-04-09T02:47:37.079Z,96450.00
2023-04-09T02:52:59.051Z,96456.84
2023-04-09T02:58:21.064Z,96458.59
2023-04-09T03:03:44.264Z,96451.88
2023-04-09T03:09:06.039Z,96445.88
2023-04-09T03:14:28.040Z,96446.13
2023-04-09T03:19:50.040Z,96443.69
2023-04-09T03:25:12.049Z,96437.28
2023-04-09T03:30:35.035Z,96437.91
2023-04-09T03:35:57.091Z,96432.72
2023-04-09T03:41:30.031Z,96435.78
2023-04-09T03:46:55.090Z,96445.06
2023-04-09T03:52:17.025Z,96436.91
2023-04-09T03:57:47.068Z,96449.00
2023-04-09T04:03:15.165Z,96447.06
2023-04-09T04:08:55.152Z,96443.47
2023-04-09T04:14:28.025Z,96450.03
2023-04-09T04:19:58.022Z,96440.22
2023-04-09T04:25:25.018Z,96446.44
2023-04-09T04:30:49.032Z,96442.94
2023-04-09T04:36:24.992Z,96451.41
2023-04-09T04:41:46.990Z,96453.25
2023-04-09T04:47:12.033Z,96459.03
2023-04-09T04:52:34.012Z,96462.06
2023-04-09T04:57:57.002Z,96464.38
2023-04-09T05:03:28.107Z,96463.91
2023-04-09T05:09:11.021Z,96465.84
2023-04-09T05:14:44.999Z,96460.84
2023-04-09T05:20:08.045Z,96475.31
2023-04-09T05:25:49.988Z,96469.97
2023-04-09T05:31:30.999Z,96470.53
2023-04-09T05:36:56.992Z,96469.50
2023-04-09T05:42:19.996Z,96476.56
2023-04-09T05:47:55.036Z,96465.91
2023-04-09T05:53:17.976Z,96480.00
2023-04-09T05:58:39.971Z,96468.22
2023-04-09T06:04:02.369Z,96468.75
2023-04-09T06:09:23.993Z,96477.09
2023-04-09T06:14:46.004Z,96483.06
2023-04-09T06:20:07.982Z,96494.81
2023-04-09T06:25:29.980Z,96497.69
2023-04-09T06:30:52.027Z,96497.53
2023-04-09T06:36:14.056Z,96509.47
2023-04-09T06:41:35.980Z,96511.66
2023-04-09T06:47:16.985Z,96513.16
2023-04-09T06:52:38.973Z,96520.41
2023-04-09T06:58:00.961Z,96523.31
2023-04-09T07:03:23.050Z,96520.31
2023-04-09T07:08:44.978Z,96524.28
2023-04-09T07:14:06.983Z,96534.53
2023-04-09T07:19:28.966Z,96537.06
2023-04-09T07:24:50.939Z,96532.28
2023-04-09T07:30:12.956Z,96537.25
2023-04-09T07:35:34.992Z,96541.00
2023-04-09T07:40:56.950Z,96541.16
2023-04-09T07:46:25.042Z,96542.88
2023-04-09T07:51:46.968Z,96531.41
2023-04-09T07:57:08.950Z,96534.94
2023-04-09T08:02:31.297Z,96534.00
2023-04-09T08:07:52.940Z,96537.00
2023-04-09T08:13:21.935Z,96541.50
2023-04-09T08:18:43.945Z,96534.78
2023-04-09T08:24:10.938Z,96534.34
2023-04-09T08:29:32.920Z,96540.66
2023-04-09T08:34:54.928Z,96534.91
2023-04-09T08:40:17.940Z,96526.00
2023-04-09T08:45:40.033Z,96529.56
2023-04-09T08:51:01.964Z,96533.09
2023-04-09T08:56:23.957Z,96545.25
2023-04-09T09:01:46.025Z,96542.09
2023-04-09T09:07:08.009Z,96557.06
2023-04-09T09:12:47.925Z,96551.41
2023-04-09T09:18:09.942Z,96559.75
2023-04-09T09:23:47.933Z,96554.31
2023-04-09T09:29:10.895Z,96554.25
2023-04-09T09:34:34.958Z,96556.28
2023-04-09T09:39:56.924Z,96554.06
2023-04-09T09:45:30.912Z,96555.72
2023-04-09T09:50:54.922Z,96543.94
2023-04-09T09:56:20.937Z,96549.41
2023-04-09T10:01:43.953Z,96548.22
2023-04-09T10:07:05.962Z,96543.22
2023-04-09T10:12:31.951Z,96532.50
2023-04-09T10:17:53.947Z,96542.88
2023-04-09T10:23:21.974Z,96544.22
2023-04-09T10:28:43.926Z,96539.72
2023-04-09T10:34:11.068Z,96543.41
2023-04-09T10:39:32.942Z,96537.69
2023-04-09T10:45:10.902Z,96534.97
2023-04-09T10:50:38.905Z,96536.66
2023-04-09T10:56:01.955Z,96526.56
2023-04-09T11:01:16.936Z,96522.38
2023-04-09T11:06:39.898Z,96521.63
2023-04-09T11:12:03.900Z,96511.59
2023-04-09T11:17:26.907Z,96518.75
2023-04-09T11:22:48.909Z,96512.22
2023-04-09T11:28:10.901Z,96513.44
2023-04-09T11:33:40.900Z,96514.31
2023-04-09T11:39:02.891Z,96505.38
2023-04-09T11:44:24.886Z,96497.19
2023-04-09T11:49:46.903Z,96493.72
2023-04-09T11:55:10.917Z,96498.88
2023-04-09T12:00:33.887Z,96493.47
2023-04-09T12:05:55.895Z,96502.16
2023-04-09T12:11:21.917Z,96499.84
2023-04-09T12:16:43.919Z,96486.53
2023-04-09T12:22:07.897Z,96487.41
2023-04-09T12:27:30.240Z,96488.19
2023-04-09T12:32:52.962Z,96479.91
2023-04-09T12:38:14.889Z,96478.34
2023-04-09T12:43:36.859Z,96475.19
2023-04-09T12:48:58.884Z,96471.66
2023-04-09T12:54:20.864Z,96460.28
2023-04-09T12:59:42.874Z,96461.41
2023-04-09T13:05:04.873Z,96457.06
2023-04-09T13:10:26.871Z,96435.09
2023-04-09T13:15:51.870Z,96447.22
2023-04-09T13:21:13.859Z,96451.91
2023-04-09T13:26:35.872Z,96447.97
2023-04-09T13:31:57.892Z,96443.19
2023-04-09T13:37:19.873Z,96419.09
2023-04-09T13:42:41.839Z,96420.94
2023-04-09T13:48:03.895Z,96420.06
2023-04-09T13:53:26.866Z,96419.66
2023-04-09T13:58:49.941Z,96427.91
2023-04-09T14:04:11.903Z,96439.78
2023-04-09T14:09:33.855Z,96461.16
2023-04-09T14:14:56.845Z,96452.22
2023-04-09T14:20:18.846Z,96437.75
2023-04-09T14:25:40.850Z,96431.94
2023-04-09T14:31:02.864Z,96430.75
2023-04-09T14:36:24.862Z,96425.69
2023-04-09T14:41:46.832Z,96429.63
2023-04-09T14:47:08.885Z,96427.22
2023-04-09T14:52:30.850Z,96433.47
2023-04-09T14:57:52.855Z,96436.97
2023-04-09T15:03:15.108Z,96446.44
2023-04-09T15:08:36.873Z,96448.91
2023-04-09T15:14:14.852Z,96437.97
2023-04-09T15:19:37.850Z,96430.94
2023-04-09T15:24:59.854Z,96434.44
2023-04-09T15:30:21.839Z,96430.94
2023-04-09T15:35:43.877Z,96437.19
2023-04-09T15:41:05.862Z,96439.56
2023-04-09T15:46:27.824Z,96437.19
2023-04-09T15:51:49.832Z,96438.38
2023-04-09T15:57:11.838Z,96434.81
2023-04-09T16:02:33.872Z,96437.16
2023-04-09T16:07:58.281Z,96417.44
2023-04-09T16:13:20.844Z,96414.19
2023-04-09T16:18:42.829Z,96415.22
2023-04-09T16:24:04.843Z,96407.59
2023-04-09T16:29:26.818Z,96412.13
2023-04-09T16:34:48.824Z,96415.50
2023-04-09T16:40:10.827Z,96411.91
2023-04-09T16:45:32.860Z,96413.38
2023-04-09T16:50:54.831Z,96414.53
2023-04-09T16:56:16.867Z,96422.75
2023-04-09T17:01:38.873Z,96419.16
2023-04-09T17:07:00.827Z,96412.50
2023-04-09T17:12:22.812Z,96423.22
2023-04-09T17:17:44.865Z,96419.75
2023-04-09T17:23:06.810Z,96428.44
2023-04-09T17:28:28.802Z,96432.94
2023-04-09T17:33:50.819Z,96429.94
2023-04-09T17:39:12.840Z,96431.25
2023-04-09T17:44:34.819Z,96434.94
2023-04-09T17:49:56.818Z,96442.88
2023-04-09T17:55:25.805Z,96443.75
2023-04-09T18:00:47.799Z,96461.06
2023-04-09T18:06:02.837Z,96456.38
2023-04-09T18:11:24.810Z,96460.34
2023-04-09T18:16:46.807Z,96467.78
2023-04-09T18:22:08.779Z,96470.50
2023-04-09T18:27:31.046Z,96474.41
2023-04-09T18:32:54.836Z,96480.66
2023-04-09T18:38:16.802Z,96483.38
2023-04-09T18:43:41.877Z,96493.94
2023-04-09T18:49:05.433Z,96511.19
2023-04-09T18:54:27.029Z,96507.22
2023-04-09T18:59:51.798Z,96504.47
2023-04-09T19:05:13.799Z,96501.66
2023-04-09T19:10:35.805Z,96510.22
2023-04-09T19:15:57.849Z,96512.44
2023-04-09T19:21:19.828Z,96517.03
2023-04-09T19:26:41.797Z,96522.78
2023-04-09T19:32:03.805Z,96526.97
2023-04-09T19:37:25.836Z,96531.22
2023-04-09T19:42:47.805Z,96532.31
2023-04-09T19:48:09.869Z,96536.16
2023-04-09T19:53:31.786Z,96540.78
2023-04-09T19:58:55.040Z,96542.25
2023-04-09T20:04:16.803Z,96540.97
2023-04-09T20:09:38.775Z,96535.47
2023-04-09T20:15:09.696Z,96536.94
2023-04-09T20:20:31.788Z,96544.63
2023-04-09T20:25:53.774Z,96538.31
2023-04-09T20:31:15.778Z,96539.81
2023-04-09T20:36:37.931Z,96536.22
2023-04-09T20:41:59.800Z,96540.47
2023-04-09T20:47:21.810Z,96536.50
2023-04-09T20:52:43.765Z,96529.81
2023-04-09T20:58:06.771Z,96527.06
2023-04-09T21:03:28.941Z,96521.09
2023-04-09T21:08:50.829Z,96525.38
2023-04-09T21:14:13.762Z,96526.06
2023-04-09T21:19:35.765Z,96529.06
2023-04-09T21:25:00.782Z,96529.28
2023-04-09T21:30:22.763Z,96529.06
2023-04-09T21:35:44.752Z,96529.00
2023-04-09T21:41:06.760Z,96536.41
2023-04-09T21:46:28.808Z,96545.34
2023-04-09T21:51:51.779Z,96542.16
2023-04-09T21:57:13.742Z,96549.94
2023-04-09T22:02:35.895Z,96549.13
2023-04-09T22:07:57.757Z,96550.09
2023-04-09T22:13:19.770Z,96544.91
2023-04-09T22:18:41.763Z,96547.56
2023-04-09T22:24:03.764Z,96541.19
2023-04-09T22:29:25.744Z,96539.94
2023-04-09T22:34:47.753Z,96548.06
2023-04-09T22:40:09.746Z,96542.53
2023-04-09T22:45:33.765Z,96546.78
2023-04-09T22:50:56.757Z,96552.97
2023-04-09T22:56:18.737Z,96542.41
2023-04-09T23:01:40.813Z,96547.88
2023-04-09T23:07:02.764Z,96542.38
2023-04-09T23:12:24.752Z,96540.00
2023-04-09T23:17:47.820Z,96542.28
2023-04-09T23:23:09.736Z,96539.53
2023-04-09T23:28:31.750Z,96542.19
2023-04-09T23:33:53.863Z,96542.13
2023-04-09T23:39:15.716Z,96532.72
2023-04-09T23:44:38.736Z,96536.63
2023-04-09T23:50:00.735Z,96535.75
2023-04-09T23:55:29.745Z,96532.16
